createdAt,value
2023-02-23T00:00:50.441Z,13.30
2023-02-23T00:03:54.971Z,12.45
2023-02-23T00:06:57.350Z,12.63
2023-02-23T00:10:01.567Z,12.40
2023-02-23T00:13:05.172Z,13.90
2023-02-23T00:16:09.071Z,13.35
2023-02-23T00:19:14.042Z,13.43
2023-02-23T00:22:16.470Z,12.73
2023-02-23T00:25:18.704Z,13.30
2023-02-23T00:28:22.509Z,12.32
2023-02-23T00:31:25.856Z,13.95
2023-02-23T00:34:28.441Z,14.13
2023-02-23T00:37:31.237Z,13.25
2023-02-23T00:40:33.441Z,14.13
2023-02-23T00:43:38.866Z,13.27
2023-02-23T00:46:43.170Z,13.77
2023-02-23T00:49:45.474Z,13.50
2023-02-23T00:52:47.785Z,13.23
2023-02-23T00:55:50.092Z,13.77
2023-02-23T00:58:54.300Z,13.80
2023-02-23T01:01:56.657Z,14.52
2023-02-23T01:04:58.933Z,14.32
2023-02-23T01:08:04.410Z,13.82
2023-02-23T01:11:09.436Z,14.88
2023-02-23T01:14:13.045Z,13.95
2023-02-23T01:17:17.906Z,15.32
2023-02-23T01:20:20.430Z,15.13
2023-02-23T01:23:23.567Z,15.07
2023-02-23T01:26:27.415Z,14.82
2023-02-23T01:29:31.641Z,14.35
2023-02-23T01:32:35.145Z,15.75
2023-02-23T01:35:37.405Z,15.27
2023-02-23T01:38:39.772Z,15.48
2023-02-23T01:41:42.659Z,14.75
2023-02-23T01:45:21.137Z,15.32
2023-02-23T01:48:26.700Z,15.25
2023-02-23T01:51:32.186Z,16.17
2023-02-23T01:54:38.159Z,17.08
2023-02-23T01:57:41.844Z,16.23
2023-02-23T02:00:47.882Z,16.25
2023-02-23T02:03:55.508Z,15.45
2023-02-23T02:07:01.257Z,15.63
2023-02-23T02:10:12.937Z,16.15
2023-02-23T02:13:20.555Z,16.25
2023-02-23T02:16:32.887Z,16.73
2023-02-23T02:20:31.989Z,16.85
2023-02-23T02:24:02.491Z,16.40
2023-02-23T02:27:14.047Z,16.63
2023-02-23T02:30:30.250Z,16.35
2023-02-23T02:33:47.620Z,16.13
2023-02-23T02:37:18.559Z,17.95
2023-02-23T02:40:26.837Z,17.17
2023-02-23T02:43:38.591Z,17.20
2023-02-23T02:46:47.954Z,16.38
2023-02-23T02:49:54.192Z,16.08
2023-02-23T02:53:03.512Z,16.38
2023-02-23T02:56:07.005Z,16.10
2023-02-23T02:59:32.930Z,16.52
2023-02-23T03:02:56.219Z,17.73
2023-02-23T03:06:17.295Z,16.13
2023-02-23T03:09:46.021Z,16.05
2023-02-23T03:13:15.896Z,16.17
2023-02-23T03:16:42.793Z,17.75
2023-02-23T03:20:10.083Z,16.85
2023-02-23T03:23:36.525Z,17.20
2023-02-23T03:27:01.915Z,17.95
2023-02-23T03:30:30.478Z,17.00
2023-02-23T03:33:57.583Z,17.13
2023-02-23T03:37:22.943Z,16.45
2023-02-23T03:40:45.770Z,16.35
2023-02-23T03:44:12.697Z,17.85
2023-02-23T03:47:34.315Z,16.88
2023-02-23T03:50:57.915Z,17.08
2023-02-23T03:54:23.197Z,17.42
2023-02-23T03:57:46.490Z,17.02
2023-02-23T04:01:08.862Z,18.67
2023-02-23T04:04:30.582Z,16.73
2023-02-23T04:07:52.306Z,16.90
2023-02-23T04:11:17.836Z,16.58
2023-02-23T04:14:24.436Z,17.73
2023-02-23T04:17:29.393Z,18.38
2023-02-23T04:20:31.933Z,17.25
2023-02-23T04:23:35.010Z,17.98
2023-02-23T04:26:37.336Z,17.98
2023-02-23T04:29:40.054Z,17.42
2023-02-23T04:32:46.177Z,18.52
2023-02-23T04:35:48.798Z,18.10
2023-02-23T04:38:51.077Z,18.20
2023-02-23T04:41:53.328Z,16.75
2023-02-23T04:44:55.674Z,17.52
2023-02-23T04:47:59.325Z,17.38
2023-02-23T04:51:01.729Z,18.95
2023-02-23T04:54:04.377Z,19.17
2023-02-23T04:57:07.522Z,19.25
2023-02-23T05:00:11.072Z,20.08
2023-02-23T05:03:14.788Z,18.77
2023-02-23T05:06:17.532Z,18.13
2023-02-23T05:09:20.433Z,18.50
2023-02-23T05:12:22.728Z,18.58
2023-02-23T05:15:24.998Z,19.30
2023-02-23T05:18:28.885Z,18.92
2023-02-23T05:21:31.348Z,18.92
2023-02-23T05:24:33.674Z,19.52
2023-02-23T05:27:36.835Z,19.55
2023-02-23T05:30:39.066Z,19.30
2023-02-23T05:33:43.102Z,18.27
2023-02-23T05:36:45.372Z,17.95
2023-02-23T05:39:47.900Z,18.60
2023-02-23T05:42:50.177Z,17.45
2023-02-23T05:45:52.480Z,18.15
2023-02-23T05:48:58.663Z,17.20
2023-02-23T05:52:00.970Z,16.95
2023-02-23T05:55:03.511Z,18.42
2023-02-23T05:58:06.278Z,18.35
2023-02-23T06:01:08.654Z,19.52
2023-02-23T06:04:14.097Z,19.73
2023-02-23T06:07:16.428Z,18.35
2023-02-23T06:10:18.923Z,18.77
2023-02-23T06:13:21.337Z,18.08
2023-02-23T06:16:24.338Z,16.98
2023-02-23T06:19:28.049Z,18.92
2023-02-23T06:22:30.641Z,17.58
2023-02-23T06:25:33.008Z,18.67
2023-02-23T06:28:35.548Z,18.63
2023-02-23T06:31:38.121Z,19.35
2023-02-23T06:34:41.813Z,18.58
2023-02-23T06:37:44.444Z,18.65
2023-02-23T06:40:46.792Z,18.33
2023-02-23T06:43:49.117Z,17.60
2023-02-23T06:46:51.443Z,18.10
2023-02-23T06:49:55.185Z,17.95
2023-02-23T06:52:57.696Z,17.13
2023-02-23T06:56:00.051Z,18.02
2023-02-23T06:59:02.435Z,17.27
2023-02-23T07:02:05.742Z,15.82
2023-02-23T07:05:09.857Z,18.05
2023-02-23T07:08:12.378Z,17.95
2023-02-23T07:11:15.922Z,17.52
2023-02-23T07:14:26.101Z,18.35
2023-02-23T07:17:29.042Z,17.35
2023-02-23T07:20:33.085Z,17.08
2023-02-23T07:23:35.422Z,17.30
2023-02-23T07:26:37.691Z,16.83
2023-02-23T07:29:40.014Z,16.95
2023-02-23T07:32:42.394Z,15.57
2023-02-23T07:35:46.061Z,17.67
2023-02-23T07:38:48.390Z,17.15
2023-02-23T07:41:50.685Z,17.13
2023-02-23T07:44:54.034Z,16.25
2023-02-23T07:47:56.470Z,17.05
2023-02-23T07:51:00.215Z,16.33
2023-02-23T07:54:04.833Z,16.08
2023-02-23T07:57:07.979Z,15.82
2023-02-23T08:00:11.735Z,15.85
2023-02-23T08:03:16.766Z,15.18
2023-02-23T08:06:21.041Z,16.70
2023-02-23T08:09:23.357Z,14.77
2023-02-23T08:12:25.789Z,15.75
2023-02-23T08:15:28.040Z,16.27
2023-02-23T08:18:30.407Z,16.75
2023-02-23T08:21:34.154Z,16.48
2023-02-23T08:24:36.857Z,15.77
2023-02-23T08:27:39.396Z,17.25
2023-02-23T08:30:41.965Z,16.88
2023-02-23T08:33:44.365Z,17.20
2023-02-23T08:36:48.051Z,16.55
2023-02-23T08:39:51.587Z,15.15
2023-02-23T08:42:54.576Z,16.30
2023-02-23T08:45:56.872Z,16.75
2023-02-23T08:48:59.279Z,16.25
2023-02-23T08:52:02.954Z,15.93
2023-02-23T08:55:06.309Z,17.60
2023-02-23T08:58:10.635Z,17.48
2023-02-23T09:01:18.276Z,17.67
2023-02-23T09:04:20.889Z,17.80
2023-02-23T09:07:24.865Z,19.00
2023-02-23T09:10:29.032Z,18.98
2023-02-23T09:13:31.456Z,18.95
2023-02-23T09:16:33.990Z,18.35
2023-02-23T09:19:36.405Z,16.50
2023-02-23T09:22:40.182Z,18.48
2023-02-23T09:25:43.740Z,17.63
2023-02-23T09:28:46.289Z,18.10
2023-02-23T09:31:51.222Z,19.23
2023-02-23T09:34:53.589Z,18.73
2023-02-23T09:37:58.495Z,19.27
2023-02-23T09:41:01.204Z,17.65
2023-02-23T09:44:10.566Z,17.77
2023-02-23T09:47:21.169Z,19.75
2023-02-23T09:50:25.925Z,17.58
2023-02-23T09:53:34.277Z,19.25
2023-02-23T09:56:38.523Z,19.13
2023-02-23T09:59:41.135Z,20.55
2023-02-23T10:02:55.562Z,21.17
2023-02-23T10:06:01.405Z,21.02
2023-02-23T10:09:15.803Z,18.75
2023-02-23T10:12:23.648Z,20.60
2023-02-23T10:15:34.747Z,18.88
2023-02-23T10:18:46.868Z,19.20
2023-02-23T10:21:55.562Z,17.60
2023-02-23T10:25:03.925Z,16.52
2023-02-23T10:28:10.831Z,16.48
2023-02-23T10:31:25.293Z,15.63
2023-02-23T10:34:29.240Z,15.27
2023-02-23T10:37:31.946Z,15.98
2023-02-23T10:40:36.306Z,15.45
2023-02-23T10:43:38.968Z,15.63
2023-02-23T10:46:41.893Z,15.45
2023-02-23T10:49:46.422Z,15.25
2023-02-23T10:52:50.270Z,15.48
2023-02-23T10:56:06.307Z,16.52
2023-02-23T10:59:19.337Z,17.58
2023-02-23T11:02:24.492Z,18.25
2023-02-23T11:05:34.123Z,17.08
2023-02-23T11:08:37.495Z,17.85
2023-02-23T11:11:41.255Z,20.17
2023-02-23T11:14:43.575Z,18.75
2023-02-23T11:17:46.017Z,18.80
2023-02-23T11:20:48.488Z,21.35
2023-02-23T11:23:52.318Z,22.17
2023-02-23T11:27:03.813Z,22.38
2023-02-23T11:30:07.780Z,21.35
2023-02-23T11:33:16.479Z,21.13
2023-02-23T11:36:27.848Z,20.75
2023-02-23T11:39:30.642Z,22.60
2023-02-23T11:42:34.318Z,21.67
2023-02-23T11:45:39.835Z,22.90
2023-02-23T11:48:47.852Z,23.30
2023-02-23T11:51:52.328Z,22.17
2023-02-23T11:54:56.573Z,22.40
2023-02-23T11:58:11.824Z,22.23
2023-02-23T12:01:17.026Z,20.95
2023-02-23T12:04:30.085Z,19.90
2023-02-23T12:07:41.767Z,21.83
2023-02-23T12:10:47.418Z,20.83
2023-02-23T12:13:54.287Z,21.17
2023-02-23T12:17:00.424Z,20.38
2023-02-23T12:20:10.991Z,18.60
2023-02-23T12:23:17.436Z,21.05
2023-02-23T12:26:22.666Z,20.75
2023-02-23T12:29:32.066Z,20.90
2023-02-23T12:32:42.355Z,19.08
2023-02-23T12:35:50.671Z,18.95
2023-02-23T12:38:56.659Z,20.83
2023-02-23T12:42:04.702Z,24.45
2023-02-23T12:45:15.752Z,22.58
2023-02-23T12:48:29.519Z,21.20
2023-02-23T12:51:34.876Z,19.92
2023-02-23T12:54:37.312Z,19.15
2023-02-23T12:57:46.247Z,20.95
2023-02-23T13:00:53.410Z,21.58
2023-02-23T13:04:24.305Z,19.42
2023-02-23T13:07:34.992Z,18.80
2023-02-23T13:10:44.521Z,19.25
2023-02-23T13:13:50.952Z,20.27
2023-02-23T13:17:00.007Z,19.15
2023-02-23T13:20:10.287Z,18.30
2023-02-23T13:23:17.660Z,20.00
2023-02-23T13:26:29.363Z,18.13
2023-02-23T13:29:36.196Z,20.02
2023-02-23T13:32:40.104Z,19.27
2023-02-23T13:35:42.674Z,18.17
2023-02-23T13:38:56.928Z,18.95
2023-02-23T13:42:15.392Z,18.38
2023-02-23T13:45:27.705Z,18.73
2023-02-23T13:48:47.307Z,17.30
2023-02-23T13:52:00.114Z,17.25
2023-02-23T13:55:03.890Z,16.13
2023-02-23T13:58:11.907Z,15.68
2023-02-23T14:01:17.098Z,13.90
2023-02-23T14:04:24.688Z,14.77
2023-02-23T14:07:30.976Z,14.25
2023-02-23T14:10:37.384Z,14.10
2023-02-23T14:13:41.701Z,15.10
2023-02-23T14:16:46.366Z,13.88
2023-02-23T14:20:06.839Z,14.75
2023-02-23T14:23:26.840Z,13.32
2023-02-23T14:26:41.172Z,13.70
2023-02-23T14:29:44.787Z,14.23
2023-02-23T14:32:49.602Z,13.57
2023-02-23T14:35:54.485Z,13.20
2023-02-23T14:39:00.887Z,12.73
2023-02-23T14:42:06.744Z,11.68
2023-02-23T14:45:19.563Z,12.80
2023-02-23T14:48:23.524Z,11.75
2023-02-23T14:51:33.997Z,10.90
2023-02-23T14:54:37.887Z,13.20
2023-02-23T14:57:41.763Z,11.80
2023-02-23T15:00:44.093Z,12.98
2023-02-23T15:04:08.097Z,14.02
2023-02-23T15:07:18.620Z,12.75
2023-02-23T15:10:26.358Z,13.13
2023-02-23T15:13:30.565Z,13.43
2023-02-23T15:16:34.991Z,11.90
2023-02-23T15:19:39.248Z,11.98
2023-02-23T15:22:44.738Z,14.00
2023-02-23T15:25:50.890Z,13.00
2023-02-23T15:28:54.220Z,12.50
2023-02-23T15:31:58.141Z,12.98
2023-02-23T15:35:04.353Z,12.75
2023-02-23T15:38:18.046Z,11.60
2023-02-23T15:41:33.150Z,12.55
2023-02-23T15:44:44.147Z,13.85
2023-02-23T15:47:47.175Z,13.38
2023-02-23T15:50:53.018Z,14.25
2023-02-23T15:53:56.946Z,13.50
2023-02-23T15:57:03.306Z,13.32
2023-02-23T16:00:17.144Z,12.05
2023-02-23T16:03:24.135Z,12.65
2023-02-23T16:06:34.755Z,12.02
2023-02-23T16:09:39.236Z,13.50
2023-02-23T16:12:44.943Z,14.35
2023-02-23T16:15:48.942Z,13.90
2023-02-23T16:18:54.042Z,14.82
2023-02-23T16:21:57.693Z,14.63
2023-02-23T16:25:05.064Z,14.18
2023-02-23T16:28:10.142Z,14.35
2023-02-23T16:31:14.190Z,13.55
2023-02-23T16:34:19.851Z,14.27
2023-02-23T16:37:25.272Z,13.63
2023-02-23T16:40:29.369Z,15.07
2023-02-23T16:43:34.893Z,14.93
2023-02-23T16:47:11.387Z,13.88
2023-02-23T16:50:20.074Z,12.85
2023-02-23T16:53:23.308Z,15.77
2023-02-23T16:56:28.577Z,14.50
2023-02-23T16:59:30.896Z,14.88
2023-02-23T17:02:33.191Z,14.13
2023-02-23T17:05:35.472Z,13.10
2023-02-23T17:08:41.272Z,13.75
2023-02-23T17:11:47.351Z,12.40
2023-02-23T17:14:49.733Z,11.85
2023-02-23T17:17:53.365Z,11.88
2023-02-23T17:20:56.881Z,11.38
2023-02-23T17:24:02.842Z,12.27
2023-02-23T17:27:07.920Z,12.30
2023-02-23T17:30:11.728Z,11.68
2023-02-23T17:33:14.637Z,12.05
2023-02-23T17:36:17.806Z,11.95
2023-02-23T17:39:21.112Z,10.35
2023-02-23T17:42:33.785Z,11.90
2023-02-23T17:45:36.398Z,10.73
2023-02-23T17:48:40.658Z,9.02
2023-02-23T17:51:43.231Z,9.38
2023-02-23T17:54:45.595Z,10.10
2023-02-23T17:57:51.313Z,10.93
2023-02-23T18:00:55.900Z,9.93
2023-02-23T18:03:59.301Z,10.55
2023-02-23T18:07:01.974Z,9.80
2023-02-23T18:10:05.257Z,10.80
2023-02-23T18:13:07.833Z,10.23
2023-02-23T18:16:12.955Z,10.80
2023-02-23T18:19:15.346Z,10.35
2023-02-23T18:22:17.994Z,11.13
2023-02-23T18:25:21.320Z,11.15
2023-02-23T18:28:23.740Z,14.15
2023-02-23T18:31:30.698Z,12.70
2023-02-23T18:34:33.508Z,15.23
2023-02-23T18:37:36.721Z,13.57
2023-02-23T18:40:39.421Z,13.57
2023-02-23T18:43:41.788Z,13.50
2023-02-23T18:46:46.607Z,12.93
2023-02-23T18:49:49.103Z,11.45
2023-02-23T18:52:52.273Z,14.13
2023-02-23T18:55:54.670Z,14.40
2023-02-23T18:58:59.151Z,16.08
2023-02-23T19:02:02.814Z,13.75
2023-02-23T19:05:05.545Z,15.57
2023-02-23T19:08:08.585Z,14.48
2023-02-23T19:11:11.530Z,14.57
2023-02-23T19:14:16.617Z,15.70
2023-02-23T19:17:20.324Z,13.90
2023-02-23T19:20:23.268Z,14.77
2023-02-23T19:23:25.563Z,13.57
2023-02-23T19:26:29.380Z,14.90
2023-02-23T19:29:31.743Z,15.93
2023-02-23T19:32:35.559Z,15.77
2023-02-23T19:35:39.107Z,16.73
2023-02-23T19:38:45.557Z,12.73
2023-02-23T19:41:47.994Z,13.98
2023-02-23T19:44:50.398Z,15.20
2023-02-23T19:47:54.289Z,13.57
2023-02-23T19:50:56.580Z,12.90
2023-02-23T19:53:59.202Z,13.15
2023-02-23T19:57:01.592Z,13.38
2023-02-23T20:00:05.196Z,12.35
2023-02-23T20:03:14.256Z,12.75
2023-02-23T20:06:18.998Z,13.55
2023-02-23T20:09:21.247Z,12.02
2023-02-23T20:12:23.553Z,11.27
2023-02-23T20:15:25.846Z,11.50
2023-02-23T20:18:29.677Z,13.00
2023-02-23T20:21:32.571Z,12.55
2023-02-23T20:24:35.019Z,12.50
2023-02-23T20:27:37.387Z,12.43
2023-02-23T20:30:39.916Z,12.73
2023-02-23T20:33:43.698Z,11.75
2023-02-23T20:36:46.798Z,11.85
2023-02-23T20:39:49.290Z,11.40
2023-02-23T20:42:51.938Z,12.50
2023-02-23T20:45:54.287Z,12.55
2023-02-23T20:48:59.300Z,12.27
2023-02-23T20:52:03.228Z,10.32
2023-02-23T20:55:06.676Z,8.88
2023-02-23T20:58:09.102Z,8.77
2023-02-23T21:01:16.740Z,10.15
2023-02-23T21:04:20.436Z,9.85
2023-02-23T21:07:26.545Z,8.57
2023-02-23T21:10:30.739Z,8.10
2023-02-23T21:13:33.046Z,8.57
2023-02-23T21:16:36.108Z,9.30
2023-02-23T21:19:40.037Z,11.43
2023-02-23T21:22:42.660Z,10.10
2023-02-23T21:25:44.961Z,9.02
2023-02-23T21:28:47.265Z,10.70
2023-02-23T21:31:49.667Z,10.30
2023-02-23T21:34:53.535Z,9.88
2023-02-23T21:37:56.889Z,10.38
2023-02-23T21:40:59.248Z,10.30
2023-02-23T21:44:01.878Z,10.63
2023-02-23T21:47:07.092Z,11.30
2023-02-23T21:50:13.585Z,10.00
2023-02-23T21:53:15.889Z,9.73
2023-02-23T21:56:22.283Z,10.20
2023-02-23T21:59:24.563Z,8.82
2023-02-23T22:02:30.560Z,9.07
2023-02-23T22:05:35.589Z,9.95
2023-02-23T22:08:38.112Z,8.25
2023-02-23T22:11:44.348Z,8.73
2023-02-23T22:14:46.803Z,9.60
2023-02-23T22:17:49.177Z,9.15
2023-02-23T22:20:57.606Z,10.30
2023-02-23T22:24:01.658Z,8.57
2023-02-23T22:27:04.171Z,9.95
2023-02-23T22:30:09.456Z,7.97
2023-02-23T22:33:11.895Z,8.77
2023-02-23T22:36:18.098Z,10.40
2023-02-23T22:39:20.483Z,9.90
2023-02-23T22:42:24.485Z,7.72
2023-02-23T22:45:27.326Z,8.63
2023-02-23T22:48:29.813Z,10.27
2023-02-23T22:51:33.549Z,7.78
2023-02-23T22:54:37.278Z,9.32
2023-02-23T22:57:40.000Z,8.23
2023-02-23T23:01:01.926Z,9.18
2023-02-23T23:04:10.995Z,7.70
2023-02-23T23:07:14.708Z,8.75
2023-02-23T23:10:17.942Z,9.15
2023-02-23T23:13:20.257Z,7.80
2023-02-23T23:16:31.676Z,8.13
2023-02-23T23:19:38.859Z,8.10
2023-02-23T23:22:42.603Z,8.65
2023-02-23T23:25:46.529Z,10.30
2023-02-23T23:28:51.190Z,8.45
2023-02-23T23:31:53.996Z,9.02
2023-02-23T23:34:58.566Z,8.15
2023-02-23T23:38:03.123Z,9.20
2023-02-23T23:41:13.831Z,9.38
2023-02-23T23:44:17.071Z,9.45
2023-02-23T23:47:19.325Z,8.68
2023-02-23T23:50:26.417Z,12.10
2023-02-23T23:53:30.245Z,12.77
2023-02-23T23:56:35.681Z,18.48
2023-02-23T23:59:45.738Z,19.65
